Time;durP1;ratioP1;P1;durP2;ratioP2;P2;SDS_P1;SDS_P2;PMS_P1;PMS_P2;Temp;Humidity;BMP_temperature;BMP_pressure;BME280_temperature;BME280_humidity;BME280_pressure;Samples;Min_cycle;Max_cycle;Signal;HPM_P1;HPM_P2
2021/07/04 00:02:02;;;;;;;5.27;4.83;;;20.30;99.90;;;;;;10492324;28;20239;-77
2021/07/04 00:07:05;;;;;;;5.40;5.00;;;20.40;99.90;;;;;;10494766;28;20764;-78
2021/07/04 00:12:09;;;;;;;5.90;5.47;;;20.40;99.90;;;;;;10517430;28;20208;-76
2021/07/04 00:17:11;;;;;;;5.80;5.40;;;20.30;99.90;;;;;;10536466;28;20604;-78
2021/07/04 00:22:13;;;;;;;5.73;5.33;;;20.30;99.90;;;;;;10537051;28;20208;-76
2021/07/04 00:27:17;;;;;;;4.90;4.40;;;20.20;99.90;;;;;;10508365;28;20695;-79
2021/07/04 00:32:19;;;;;;;5.60;5.10;;;20.20;99.90;;;;;;10510105;28;20200;-79
2021/07/04 00:37:21;;;;;;;5.87;5.30;;;20.20;99.90;;;;;;10535583;28;20608;-79
2021/07/04 00:42:25;;;;;;;6.83;5.70;;;20.30;99.90;;;;;;10496383;28;20207;-80
2021/07/04 00:47:27;;;;;;;5.30;4.90;;;20.30;99.90;;;;;;10514253;28;20239;-80
2021/07/04 00:52:30;;;;;;;7.07;6.10;;;20.30;99.90;;;;;;10510535;28;20639;-80
2021/07/04 00:57:35;;;;;;;6.20;5.60;;;20.20;99.90;;;;;;10495001;28;20278;-79
2021/07/04 01:02:39;;;;;;;6.17;5.57;;;20.20;99.90;;;;;;10490580;28;20212;-80
2021/07/04 01:07:42;;;;;;;6.10;5.57;;;20.20;99.90;;;;;;10482840;28;20232;-80
2021/07/04 01:12:48;;;;;;;6.40;5.80;;;20.20;99.90;;;;;;10516844;28;20200;-80
2021/07/04 01:17:50;;;;;;;6.30;5.67;;;20.10;99.90;;;;;;10537439;28;20712;-80
2021/07/04 01:22:57;;;;;;;6.73;6.23;;;20.10;99.90;;;;;;10538446;28;20693;-80
2021/07/04 01:27:59;;;;;;;6.40;5.90;;;20.10;99.90;;;;;;10539309;28;20212;-80
2021/07/04 01:33:02;;;;;;;6.90;6.40;;;20.00;99.90;;;;;;10532121;28;20287;-80
2021/07/04 01:38:06;;;;;;;6.67;6.17;;;20.00;99.90;;;;;;10537764;28;20601;-80
2021/07/04 01:43:09;;;;;;;6.93;6.37;;;20.00;99.90;;;;;;10509815;28;20686;-80
2021/07/04 01:48:14;;;;;;;8.60;6.10;;;19.90;99.90;;;;;;10504415;28;20592;-79
2021/07/04 01:53:21;;;;;;;6.37;5.87;;;19.90;99.90;;;;;;10495315;28;20640;-81
2021/07/04 01:58:28;;;;;;;7.50;6.90;;;19.90;99.90;;;;;;10495563;28;20216;-80
2021/07/04 02:03:38;;;;;;;6.80;6.20;;;19.80;99.90;;;;;;10494326;28;20200;-80
2021/07/04 02:08:45;;;;;;;7.20;6.60;;;19.80;99.90;;;;;;10494732;28;20281;-79
2021/07/04 02:13:51;;;;;;;6.67;6.27;;;19.80;99.90;;;;;;10501030;28;20221;-79
2021/07/04 02:19:05;;;;;;;7.50;6.90;;;19.80;99.90;;;;;;10494600;28;20200;-80
2021/07/04 02:24:32;;;;;;;7.53;6.83;;;19.70;99.90;;;;;;10477658;28;20260;-79
2021/07/04 02:29:46;;;;;;;7.00;6.50;;;19.70;99.90;;;;;;10518078;28;20604;-79
2021/07/04 02:34:50;;;;;;;7.30;6.70;;;19.60;99.90;;;;;;10536959;28;20235;-80
2021/07/04 02:39:54;;;;;;;7.77;7.17;;;19.60;99.90;;;;;;10535325;28;20200;-79
2021/07/04 02:44:58;;;;;;;8.43;7.60;;;19.60;99.90;;;;;;10495759;28;20714;-80
2021/07/04 02:50:01;;;;;;;7.03;6.53;;;19.60;99.90;;;;;;10508468;28;20220;-80
2021/07/04 02:55:09;;;;;;;8.30;7.60;;;19.60;99.90;;;;;;10544401;28;20224;-80
2021/07/04 03:00:18;;;;;;;7.47;6.87;;;19.50;99.90;;;;;;10543381;28;20577;-79
2021/07/04 03:05:21;;;;;;;7.80;7.10;;;19.50;99.90;;;;;;10541444;28;20310;-80
2021/07/04 03:10:25;;;;;;;8.17;7.47;;;19.50;99.90;;;;;;10518696;28;20725;-80
2021/07/04 03:15:30;;;;;;;7.77;7.07;;;19.60;99.90;;;;;;10543031;28;20255;-80
2021/07/04 03:20:35;;;;;;;7.70;7.00;;;19.60;99.90;;;;;;10542586;28;20253;-80
2021/07/04 03:25:45;;;;;;;7.70;7.10;;;19.70;99.90;;;;;;10528604;28;20243;-80
2021/07/04 03:30:50;;;;;;;7.17;6.67;;;19.60;99.90;;;;;;10525162;28;20679;-80
2021/07/04 03:35:52;;;;;;;6.37;5.87;;;19.70;99.90;;;;;;10536627;28;20294;-79
2021/07/04 03:40:57;;;;;;;7.47;6.87;;;19.70;99.90;;;;;;10531691;28;20603;-80
2021/07/04 03:46:06;;;;;;;7.20;6.57;;;19.70;99.90;;;;;;10501499;28;20220;-80
2021/07/04 03:51:15;;;;;;;6.77;6.17;;;19.70;99.90;;;;;;10500263;28;20228;-80
2021/07/04 03:56:21;;;;;;;6.90;6.20;;;19.70;99.90;;;;;;10500078;28;20617;-80
2021/07/04 04:01:25;;;;;;;6.53;6.13;;;19.70;99.90;;;;;;10500400;28;20637;-80
2021/07/04 04:06:28;;;;;;;8.90;6.53;;;19.80;99.90;;;;;;10484766;28;20237;-79
2021/07/04 04:11:43;;;;;;;7.00;6.50;;;19.90;99.90;;;;;;10531857;28;20702;-79
2021/07/04 04:16:51;;;;;;;6.33;5.83;;;19.90;99.90;;;;;;10540467;28;20236;-80
2021/07/04 04:21:58;;;;;;;6.60;6.00;;;20.00;99.90;;;;;;10543011;28;20200;-80
2021/07/04 04:27:04;;;;;;;5.70;5.30;;;20.00;99.90;;;;;;10533733;28;20228;-80
2021/07/04 04:32:08;;;;;;;6.20;5.80;;;20.10;99.90;;;;;;10540114;28;20261;-79
2021/07/04 04:37:11;;;;;;;6.53;5.93;;;20.20;99.90;;;;;;10526557;28;20281;-81
2021/07/04 04:42:15;;;;;;;7.63;6.90;;;20.30;99.90;;;;;;10522609;28;20211;-80
2021/07/04 04:47:17;;;;;;;6.37;5.97;;;20.40;99.90;;;;;;10522475;28;20259;-80
2021/07/04 04:52:19;;;;;;;6.63;6.13;;;20.40;99.90;;;;;;10540469;28;20679;-80
2021/07/04 04:57:23;;;;;;;5.80;5.40;;;20.40;99.90;;;;;;10541572;28;20216;-81
2021/07/04 05:02:25;;;;;;;5.60;5.20;;;20.50;99.90;;;;;;10541370;28;20203;-80
2021/07/04 05:07:27;;;;;;;6.30;5.40;;;20.40;99.90;;;;;;10539401;28;20224;-80
2021/07/04 05:12:31;;;;;;;6.23;5.83;;;20.50;99.90;;;;;;10531168;28;20211;-79
2021/07/04 05:17:33;;;;;;;6.43;6.03;;;20.40;99.90;;;;;;10538309;28;20230;-80
2021/07/04 05:22:36;;;;;;;6.97;6.47;;;20.40;99.90;;;;;;10498901;28;20204;-80
2021/07/04 05:27:39;;;;;;;6.33;5.77;;;20.40;99.90;;;;;;10497428;28;20263;-80
2021/07/04 05:32:42;;;;;;;6.60;5.93;;;20.30;99.90;;;;;;10532407;28;20204;-80
2021/07/04 05:37:44;;;;;;;7.10;6.40;;;20.40;99.90;;;;;;10518094;28;20224;-80
2021/07/04 05:42:47;;;;;;;6.60;6.10;;;20.40;99.90;;;;;;10523720;28;20227;-81
2021/07/04 05:47:49;;;;;;;6.77;6.23;;;20.50;99.90;;;;;;10537942;28;20243;-81
2021/07/04 05:52:51;;;;;;;7.83;7.13;;;20.50;99.90;;;;;;10543706;28;20200;-80
2021/07/04 05:57:55;;;;;;;7.23;6.63;;;20.60;99.90;;;;;;10504538;28;20595;-78
2021/07/04 06:02:57;;;;;;;6.70;6.20;;;20.80;99.90;;;;;;10496421;28;20235;-78
2021/07/04 06:07:59;;;;;;;5.60;5.20;;;21.00;99.90;;;;;;10520988;28;20258;-77
2021/07/04 06:13:03;;;;;;;6.00;5.50;;;21.10;99.90;;;;;;10504308;28;20629;-77
2021/07/04 06:18:05;;;;;;;6.50;6.00;;;21.30;99.90;;;;;;10491677;28;20220;-78
2021/07/04 06:23:07;;;;;;;5.80;5.40;;;21.40;99.90;;;;;;10493350;28;20200;-78
2021/07/04 06:28:11;;;;;;;9.17;5.43;;;21.50;99.90;;;;;;10498514;28;20224;-78
2021/07/04 06:33:13;;;;;;;6.97;6.37;;;21.40;99.90;;;;;;10500643;28;20208;-78
2021/07/04 06:38:15;;;;;;;9.20;6.10;;;21.40;99.90;;;;;;10499469;28;20311;-78
2021/07/04 06:43:18;;;;;;;6.83;6.33;;;21.40;99.90;;;;;;10529634;28;20234;-77
2021/07/04 06:48:26;;;;;;;6.03;5.63;;;21.40;99.90;;;;;;10541821;28;20211;-77
2021/07/04 06:53:30;;;;;;;6.67;6.17;;;21.60;99.90;;;;;;10540992;28;20525;-78
2021/07/04 06:58:33;;;;;;;6.70;6.20;;;21.90;99.90;;;;;;10540686;28;20631;-78
2021/07/04 07:03:36;;;;;;;5.77;5.33;;;22.30;99.90;;;;;;10506785;28;20295;-78
2021/07/04 07:08:38;;;;;;;7.93;6.00;;;22.70;99.90;;;;;;10499269;28;20308;-78
2021/07/04 07:13:41;;;;;;;6.00;5.50;;;22.90;99.90;;;;;;10527979;28;20238;-78
2021/07/04 07:18:43;;;;;;;5.83;5.33;;;23.00;99.90;;;;;;10539612;28;20262;-78
2021/07/04 07:23:50;;;;;;;5.60;5.20;;;23.40;99.90;;;;;;10526131;28;20239;-78
2021/07/04 07:28:54;;;;;;;5.57;5.07;;;23.90;99.90;;;;;;10524813;28;20416;-78
2021/07/04 07:33:56;;;;;;;5.20;4.87;;;24.30;99.90;;;;;;10546623;28;20238;-78
2021/07/04 07:39:00;;;;;;;5.50;5.00;;;24.60;99.90;;;;;;10544648;28;20266;-78
2021/07/04 07:44:12;;;;;;;6.20;5.70;;;24.50;99.90;;;;;;10508653;28;20227;-78
2021/07/04 07:49:17;;;;;;;5.17;4.77;;;24.40;99.90;;;;;;10501573;28;20587;-78
2021/07/04 07:54:23;;;;;;;5.23;4.93;;;24.40;99.90;;;;;;10501230;28;20220;-78
2021/07/04 07:59:26;;;;;;;5.07;4.67;;;24.40;99.90;;;;;;10510764;28;20235;-78
2021/07/04 08:04:28;;;;;;;5.47;4.97;;;24.80;99.90;;;;;;10542472;28;20315;-77
2021/07/04 08:09:30;;;;;;;5.30;4.67;;;25.50;99.90;;;;;;10539843;28;20269;-77
2021/07/04 08:14:34;;;;;;;6.00;5.50;;;26.50;99.90;;;;;;10497551;28;20220;-78
2021/07/04 08:19:38;;;;;;;5.87;5.30;;;27.40;98.00;;;;;;10495949;28;20296;-77
2021/07/04 08:24:40;;;;;;;5.60;5.10;;;27.70;97.20;;;;;;10523972;28;20224;-78
2021/07/04 08:29:44;;;;;;;4.77;4.47;;;27.70;96.10;;;;;;10539038;28;20231;-78
2021/07/04 08:34:46;;;;;;;4.63;4.33;;;27.80;95.20;;;;;;10539503;28;20226;-77
2021/07/04 08:39:48;;;;;;;5.73;5.23;;;27.40;95.30;;;;;;10535914;28;20277;-78
2021/07/04 08:44:56;;;;;;;4.93;4.53;;;27.80;94.70;;;;;;10495743;28;20228;-78
2021/07/04 08:49:58;;;;;;;5.10;4.70;;;28.10;94.80;;;;;;10534563;28;20314;-78
2021/07/04 08:55:02;;;;;;;5.17;4.77;;;27.80;94.50;;;;;;10536581;28;20844;-78
2021/07/04 09:00:07;;;;;;;4.90;4.60;;;27.20;94.30;;;;;;10494598;28;20204;-78
2021/07/04 09:05:12;;;;;;;6.07;5.57;;;26.60;95.30;;;;;;10518341;28;20307;-78
2021/07/04 09:10:16;;;;;;;5.70;5.30;;;26.20;96.30;;;;;;10509370;28;20588;-78
2021/07/04 09:15:21;;;;;;;4.67;4.27;;;25.80;96.20;;;;;;10493585;28;20731;-78
2021/07/04 09:20:38;;;;;;;4.70;4.30;;;25.80;97.50;;;;;;10496616;28;20205;-77
2021/07/04 09:25:41;;;;;;;4.80;4.50;;;25.80;94.60;;;;;;10494027;28;20598;-78
2021/07/04 09:30:47;;;;;;;4.60;4.30;;;25.70;95.40;;;;;;10528535;28;20215;-77
2021/07/04 09:35:55;;;;;;;4.37;4.07;;;25.60;95.40;;;;;;10508039;28;20660;-77
2021/07/04 09:40:57;;;;;;;4.50;4.20;;;25.40;95.50;;;;;;10486322;28;20227;-78
2021/07/04 09:46:03;;;;;;;4.70;4.37;;;25.30;95.30;;;;;;10508205;28;20755;-77
2021/07/04 09:51:10;;;;;;;4.63;4.33;;;25.20;95.60;;;;;;10509464;28;20319;-78
2021/07/04 09:56:15;;;;;;;5.10;4.70;;;25.30;95.40;;;;;;10501153;28;20307;-76
2021/07/04 10:01:39;;;;;;;6.20;4.10;;;25.50;95.20;;;;;;10517359;28;20197;-77
2021/07/04 10:06:48;;;;;;;5.67;5.10;;;26.30;94.40;;;;;;10509538;28;20220;-77
2021/07/04 10:11:50;;;;;;;4.47;4.17;;;27.60;92.50;;;;;;10514043;28;20895;-77
2021/07/04 10:16:54;;;;;;;5.00;4.70;;;29.00;89.30;;;;;;10494954;28;20235;-78
2021/07/04 10:22:00;;;;;;;4.20;4.00;;;29.60;84.20;;;;;;10496625;28;20206;-77
2021/07/04 10:27:04;;;;;;;4.03;3.73;;;30.10;82.60;;;;;;10495031;28;20220;-78
2021/07/04 10:32:11;;;;;;;4.43;4.17;;;29.90;80.20;;;;;;10527363;28;20216;-78
2021/07/04 10:37:13;;;;;;;4.30;4.00;;;29.30;81.80;;;;;;10536987;28;20236;-78
2021/07/04 10:42:16;;;;;;;4.53;4.27;;;28.80;84.00;;;;;;10521586;28;20279;-77
2021/07/04 10:47:21;;;;;;;4.63;4.33;;;28.30;83.80;;;;;;10491063;28;20293;-77
2021/07/04 10:52:41;;;;;;;4.20;3.90;;;27.90;83.30;;;;;;10507916;28;20215;-77
2021/07/04 10:57:57;;;;;;;3.60;3.40;;;27.60;86.60;;;;;;10494386;28;20244;-77
2021/07/04 11:03:02;;;;;;;4.00;3.80;;;27.20;87.80;;;;;;10494894;28;20231;-77
2021/07/04 11:08:12;;;;;;;3.80;3.60;;;26.80;87.20;;;;;;10499360;28;20224;-77
2021/07/04 11:13:45;;;;;;;4.70;4.30;;;26.50;87.50;;;;;;10522966;28;20262;-77
2021/07/04 11:18:51;;;;;;;5.03;4.23;;;26.40;90.80;;;;;;10520403;28;20261;-78
2021/07/04 11:24:17;;;;;;;4.63;4.33;;;26.20;90.80;;;;;;10537251;28;20661;-77
2021/07/04 11:29:19;;;;;;;6.13;4.60;;;26.30;92.00;;;;;;10504436;28;20208;-77
2021/07/04 11:34:22;;;;;;;4.83;4.53;;;26.40;91.40;;;;;;10509101;28;20227;-76
2021/07/04 11:39:24;;;;;;;4.50;4.20;;;26.40;90.90;;;;;;10517261;28;20207;-77
2021/07/04 11:44:27;;;;;;;3.93;3.73;;;26.50;91.50;;;;;;10517899;28;20644;-77
2021/07/04 11:49:30;;;;;;;4.70;4.40;;;26.60;89.50;;;;;;10504181;28;20224;-76
2021/07/04 11:54:34;;;;;;;4.37;4.00;;;26.40;88.00;;;;;;10510942;28;20709;-76
2021/07/04 11:59:37;;;;;;;4.20;3.90;;;26.30;90.50;;;;;;10501102;28;20192;-77
2021/07/04 12:04:44;;;;;;;4.83;4.53;;;26.20;89.60;;;;;;10503337;28;20215;-77
2021/07/04 12:09:48;;;;;;;4.77;4.47;;;26.20;90.00;;;;;;10505107;28;20258;-76
2021/07/04 12:14:51;;;;;;;5.03;4.53;;;26.10;91.00;;;;;;10522050;28;20299;-77
2021/07/04 12:19:58;;;;;;;4.67;4.37;;;25.90;89.40;;;;;;10484686;28;20199;-76
2021/07/04 12:25:02;;;;;;;5.23;4.83;;;25.60;90.70;;;;;;10502014;28;20281;-77
2021/07/04 12:30:24;;;;;;;4.47;4.07;;;25.60;91.70;;;;;;10495634;28;20248;-77
2021/07/04 12:35:30;;;;;;;4.80;4.50;;;25.70;90.30;;;;;;10493707;28;20311;-77
2021/07/04 12:40:34;;;;;;;5.40;5.00;;;25.80;91.70;;;;;;10503428;28;20235;-77
2021/07/04 12:45:41;;;;;;;5.00;4.60;;;26.10;92.20;;;;;;10520254;28;20251;-77
2021/07/04 12:50:51;;;;;;;5.37;4.87;;;26.30;90.60;;;;;;10494358;28;20373;-76
2021/07/04 12:55:54;;;;;;;4.93;4.63;;;26.50;90.20;;;;;;10526047;28;20300;-77
2021/07/04 13:01:08;;;;;;;4.50;4.20;;;26.60;89.20;;;;;;10507375;28;20189;-77
2021/07/04 13:06:45;;;;;;;4.23;4.03;;;26.60;88.50;;;;;;10475698;28;20216;-77
2021/07/04 13:12:02;;;;;;;4.90;4.50;;;26.70;89.80;;;;;;10506815;28;20221;-78
2021/07/04 13:17:06;;;;;;;4.30;4.03;;;26.90;89.80;;;;;;10510784;28;20224;-77
2021/07/04 13:22:21;;;;;;;4.23;3.90;;;26.90;87.10;;;;;;10525911;28;20203;-77
2021/07/04 13:27:25;;;;;;;4.80;4.50;;;26.80;87.90;;;;;;10493093;28;20224;-77
2021/07/04 13:32:29;;;;;;;4.57;4.27;;;26.60;86.60;;;;;;10490166;28;20248;-77
2021/07/04 13:37:33;;;;;;;5.27;4.87;;;26.50;87.40;;;;;;10504102;28;20232;-77
2021/07/04 13:42:37;;;;;;;5.80;5.30;;;26.50;90.00;;;;;;10492383;28;20292;-77
2021/07/04 13:47:39;;;;;;;6.10;5.57;;;26.60;91.20;;;;;;10503392;28;20577;-77
2021/07/04 13:52:42;;;;;;;6.93;6.33;;;26.40;91.90;;;;;;10476174;28;20266;-77
2021/07/04 13:57:44;;;;;;;6.57;6.07;;;26.20;93.20;;;;;;10487311;28;20220;-77
2021/07/04 14:02:46;;;;;;;5.10;4.70;;;25.90;94.20;;;;;;10494223;28;20621;-77
2021/07/04 14:07:50;;;;;;;5.30;4.90;;;25.60;94.50;;;;;;10490695;28;20250;-77
2021/07/04 14:12:52;;;;;;;4.73;4.40;;;25.30;94.20;;;;;;10498205;28;20216;-80
2021/07/04 14:17:54;;;;;;;3.67;3.43;;;25.30;92.80;;;;;;10493782;28;20417;-80
2021/07/04 14:22:58;;;;;;;2.73;2.60;;;25.40;91.20;;;;;;10496887;28;20201;-80
2021/07/04 14:28:00;;;;;;;3.50;3.30;;;25.50;91.00;;;;;;10497237;28;20255;-80
2021/07/04 14:33:03;;;;;;;3.50;3.20;;;25.30;90.20;;;;;;10498874;28;20232;-80
2021/07/04 14:38:07;;;;;;;3.10;2.90;;;25.10;87.20;;;;;;10501506;28;20658;-79
2021/07/04 14:43:09;;;;;;;2.87;2.67;;;25.00;85.60;;;;;;10511491;28;20236;-79
2021/07/04 14:48:12;;;;;;;2.77;2.67;;;24.80;88.50;;;;;;10481517;28;20676;-79
2021/07/04 14:53:15;;;;;;;4.03;3.63;;;24.70;89.30;;;;;;10522228;28;20235;-80
2021/07/04 14:58:18;;;;;;;3.70;3.40;;;24.70;89.60;;;;;;10505877;28;20270;-80
2021/07/04 15:03:20;;;;;;;3.60;3.40;;;24.80;89.80;;;;;;10505584;28;20693;-80
2021/07/04 15:08:23;;;;;;;3.17;2.97;;;24.90;90.30;;;;;;10503580;28;20212;-80
2021/07/04 15:13:25;;;;;;;3.43;3.23;;;24.90;91.30;;;;;;10516179;28;20266;-80
2021/07/04 15:18:28;;;;;;;4.00;3.70;;;25.00;91.80;;;;;;10514970;28;20227;-80
2021/07/04 15:23:32;;;;;;;3.20;3.10;;;25.10;92.20;;;;;;10511003;28;20208;-79
2021/07/04 15:28:34;;;;;;;3.50;3.30;;;25.20;92.00;;;;;;10536854;28;20191;-80
2021/07/04 15:33:36;;;;;;;4.17;3.90;;;25.30;92.00;;;;;;10498213;28;20224;-80
2021/07/04 15:38:40;;;;;;;5.63;3.50;;;25.20;92.20;;;;;;10506867;28;20230;-80
2021/07/04 15:43:42;;;;;;;3.87;3.67;;;25.00;92.70;;;;;;10496633;28;20200;-79
2021/07/04 15:48:44;;;;;;;2.90;2.80;;;24.80;93.10;;;;;;10502297;28;20211;-79
2021/07/04 15:53:48;;;;;;;3.00;2.80;;;24.70;91.10;;;;;;10509464;28;20232;-79
2021/07/04 15:58:50;;;;;;;2.60;2.50;;;24.50;92.20;;;;;;10500321;28;20197;-77
2021/07/04 16:03:52;;;;;;;3.80;3.60;;;24.30;94.90;;;;;;10510753;28;20248;-77
2021/07/04 16:08:57;;;;;;;3.73;3.30;;;24.00;94.30;;;;;;10498695;28;20201;-77
2021/07/04 16:13:59;;;;;;;3.40;3.20;;;23.80;94.70;;;;;;10499042;28;20220;-77
2021/07/04 16:19:01;;;;;;;5.67;4.00;;;23.70;94.00;;;;;;10501944;28;20562;-77
2021/07/04 16:24:05;;;;;;;3.90;3.10;;;23.70;93.50;;;;;;10497080;28;20230;-77
2021/07/04 16:29:09;;;;;;;3.23;2.93;;;23.60;94.30;;;;;;10496536;28;20208;-77
2021/07/04 16:34:11;;;;;;;3.87;2.43;;;23.50;94.40;;;;;;10509418;28;20235;-76
2021/07/04 16:39:15;;;;;;;2.33;2.13;;;23.50;93.10;;;;;;10510904;28;20303;-77
2021/07/04 16:44:18;;;;;;;2.20;2.10;;;23.30;92.70;;;;;;10511124;28;20303;-77
2021/07/04 16:49:20;;;;;;;2.00;1.90;;;23.10;92.10;;;;;;10496527;28;20262;-76
2021/07/04 16:54:24;;;;;;;3.33;1.80;;;23.00;92.20;;;;;;10495378;28;20244;-76
2021/07/04 16:59:26;;;;;;;1.50;1.40;;;22.90;92.60;;;;;;10493125;28;20664;-78
2021/07/04 17:04:28;;;;;;;1.63;1.53;;;22.80;93.00;;;;;;10509235;28;20223;-77
2021/07/04 17:09:31;;;;;;;1.30;1.30;;;22.70;91.90;;;;;;10491343;28;20748;-77
2021/07/04 17:14:34;;;;;;;1.20;1.20;;;22.60;92.10;;;;;;10503317;28;20308;-77
2021/07/04 17:19:36;;;;;;;1.60;1.50;;;22.50;91.40;;;;;;10493046;28;20223;-77
2021/07/04 17:24:40;;;;;;;1.20;1.20;;;22.30;91.70;;;;;;10490280;28;20239;-77
2021/07/04 17:29:42;;;;;;;1.50;1.40;;;22.30;91.50;;;;;;10493727;28;20284;-77
2021/07/04 17:41:24;;;;;;;1.50;1.40;;;22.20;91.90;;;;;;10498933;28;20207;-81
2021/07/04 17:46:26;;;;;;;1.43;1.33;;;22.20;92.60;;;;;;10478480;28;20665;-81
2021/07/04 17:51:29;;;;;;;2.60;1.40;;;22.20;92.40;;;;;;10457912;28;20232;-81
2021/07/04 17:56:33;;;;;;;1.60;1.50;;;22.20;93.30;;;;;;10432896;28;20260;-80
2021/07/04 18:01:35;;;;;;;1.20;1.20;;;22.10;92.30;;;;;;10443711;28;20236;-82
2021/07/04 18:06:38;;;;;;;1.83;1.73;;;22.00;93.00;;;;;;10437334;28;20695;-81
2021/07/04 18:11:42;;;;;;;1.60;1.50;;;21.90;93.40;;;;;;10418075;28;20241;-82
2021/07/04 18:16:44;;;;;;;1.60;1.50;;;21.80;95.00;;;;;;10445775;28;20248;-82
2021/07/04 18:21:46;;;;;;;1.80;1.70;;;21.60;95.90;;;;;;10435331;28;20304;-81
2021/07/04 18:26:51;;;;;;;1.63;1.53;;;21.40;96.50;;;;;;10456205;28;20324;-81
2021/07/04 18:31:53;;;;;;;1.87;1.43;;;21.20;97.60;;;;;;10458586;28;20216;-81
2021/07/04 18:36:55;;;;;;;1.83;1.73;;;21.00;99.60;;;;;;10464834;28;20311;-81
2021/07/04 18:41:59;;;;;;;1.73;1.63;;;20.80;99.90;;;;;;10465812;28;20208;-81
2021/07/04 18:47:01;;;;;;;1.73;1.63;;;20.70;99.90;;;;;;10457795;28;20671;-81
2021/07/04 18:52:03;;;;;;;2.20;2.10;;;20.50;99.90;;;;;;10441895;28;20754;-81
2021/07/04 19:02:23;;;;;;;1.83;1.70;;;20.20;99.90;;;;;;10454819;28;20196;-81
2021/07/04 19:07:40;;;;;;;1.70;1.60;;;20.10;99.90;;;;;;10435924;28;20229;-80
2021/07/04 19:12:44;;;;;;;4.57;4.17;;;20.00;99.90;;;;;;10447986;28;20758;-80
2021/07/04 19:17:47;;;;;;;2.40;2.30;;;19.90;99.90;;;;;;10450051;28;20239;-80
2021/07/04 19:22:49;;;;;;;1.77;1.67;;;19.90;99.90;;;;;;10463445;28;20208;-80
2021/07/04 19:27:53;;;;;;;1.93;1.67;;;19.90;99.90;;;;;;10437735;28;20231;-80
2021/07/04 19:32:55;;;;;;;1.50;1.40;;;19.80;99.90;;;;;;10455438;28;20599;-80
2021/07/04 19:37:57;;;;;;;1.50;1.40;;;19.70;99.90;;;;;;10438223;28;20225;-81
2021/07/04 19:43:03;;;;;;;1.70;1.60;;;19.60;99.90;;;;;;10462437;28;20197;-80
2021/07/04 19:48:07;;;;;;;2.30;1.50;;;19.60;99.90;;;;;;10457545;28;20229;-80
2021/07/04 19:53:09;;;;;;;1.60;1.50;;;19.60;99.90;;;;;;10443330;28;20618;-80
2021/07/04 19:58:13;;;;;;;1.27;1.20;;;19.60;99.90;;;;;;10454561;28;20223;-82
2021/07/04 20:03:15;;;;;;;2.10;1.63;;;19.60;99.90;;;;;;10458852;28;20289;-80
2021/07/04 20:08:17;;;;;;;1.80;1.40;;;19.60;99.90;;;;;;10466756;28;20645;-80
2021/07/04 20:13:21;;;;;;;1.43;1.33;;;19.50;99.90;;;;;;10435305;28;20221;-80
2021/07/04 20:18:23;;;;;;;1.50;1.40;;;19.50;99.90;;;;;;10454790;28;20321;-80
2021/07/04 20:23:25;;;;;;;1.30;1.30;;;19.50;99.90;;;;;;10452239;28;20220;-80
2021/07/04 20:28:31;;;;;;;1.70;1.60;;;19.50;99.90;;;;;;10460668;28;20231;-80
2021/07/04 20:33:33;;;;;;;2.50;1.33;;;19.50;99.90;;;;;;10455296;28;20668;-80
2021/07/04 20:38:36;;;;;;;1.50;1.40;;;19.50;99.90;;;;;;10445926;28;20316;-80
2021/07/04 20:43:43;;;;;;;1.80;1.70;;;19.60;99.90;;;;;;10427037;28;20205;-80
2021/07/04 20:48:45;;;;;;;1.70;1.60;;;19.60;99.90;;;;;;10424407;28;20299;-80
2021/07/04 20:53:49;;;;;;;1.50;1.40;;;19.60;99.90;;;;;;10448057;28;20224;-80
2021/07/04 20:58:55;;;;;;;2.10;2.00;;;19.60;99.90;;;;;;10443893;28;20691;-80
2021/07/04 21:03:57;;;;;;;4.00;3.60;;;19.50;99.90;;;;;;10461851;28;20201;-80
2021/07/04 21:09:00;;;;;;;3.90;3.60;;;19.50;99.90;;;;;;10451449;28;20248;-80
2021/07/04 21:14:03;;;;;;;6.13;5.57;;;19.50;99.90;;;;;;10455230;28;20220;-80
2021/07/04 21:19:05;;;;;;;3.90;3.60;;;19.50;99.90;;;;;;10453071;28;20208;-80
2021/07/04 21:24:07;;;;;;;2.60;2.43;;;19.50;99.90;;;;;;10455520;28;20208;-80
2021/07/04 21:29:11;;;;;;;2.20;2.00;;;19.50;99.90;;;;;;10447219;28;20194;-80
2021/07/04 21:34:13;;;;;;;2.20;2.10;;;19.50;99.90;;;;;;10450938;28;20598;-81
2021/07/04 21:39:16;;;;;;;2.60;2.37;;;19.50;99.90;;;;;;10439175;28;20232;-80
2021/07/04 21:44:19;;;;;;;3.27;2.37;;;19.40;99.90;;;;;;10440888;28;20301;-80
2021/07/04 21:49:21;;;;;;;2.30;2.20;;;19.40;99.90;;;;;;10450850;28;20197;-80
2021/07/04 21:54:24;;;;;;;1.80;1.70;;;19.40;99.90;;;;;;10452060;28;20656;-80
2021/07/04 21:59:29;;;;;;;1.47;1.37;;;19.50;99.90;;;;;;10421380;28;20292;-80
2021/07/04 22:04:31;;;;;;;4.03;1.40;;;19.50;99.90;;;;;;10437823;28;20210;-81
2021/07/04 22:09:34;;;;;;;1.30;1.20;;;19.50;99.90;;;;;;10477784;28;20212;-80
2021/07/04 22:14:37;;;;;;;1.27;1.27;;;19.50;99.90;;;;;;10463384;28;20228;-81
2021/07/04 22:19:39;;;;;;;1.20;1.10;;;19.50;99.90;;;;;;10464168;28;20224;-80
2021/07/04 22:24:41;;;;;;;1.23;1.23;;;19.50;99.90;;;;;;10447622;28;20249;-81
2021/07/04 22:29:45;;;;;;;1.40;1.30;;;19.50;99.90;;;;;;10441369;28;20289;-80
2021/07/04 22:34:47;;;;;;;1.73;1.50;;;19.50;99.90;;;;;;10451742;28;20224;-80
2021/07/04 22:39:49;;;;;;;1.43;1.33;;;19.50;99.90;;;;;;10440972;28;20204;-81
2021/07/04 22:44:53;;;;;;;1.30;1.30;;;19.50;99.90;;;;;;10424597;28;20601;-81
2021/07/04 22:49:55;;;;;;;1.23;1.23;;;19.40;99.90;;;;;;10461788;28;20284;-81
2021/07/04 22:54:57;;;;;;;1.27;1.17;;;19.30;99.90;;;;;;10466133;28;20220;-81
2021/07/04 23:00:01;;;;;;;1.60;1.50;;;19.30;99.90;;;;;;10458605;28;20288;-81
2021/07/04 23:05:04;;;;;;;2.00;1.63;;;19.30;99.90;;;;;;10458598;28;20298;-81
2021/07/04 23:10:07;;;;;;;1.20;1.10;;;19.20;99.90;;;;;;10456882;28;20236;-81
2021/07/04 23:15:12;;;;;;;1.67;1.40;;;19.10;99.90;;;;;;10464773;28;20307;-81
2021/07/04 23:20:19;;;;;;;1.40;1.40;;;19.10;99.90;;;;;;10466679;28;20232;-81
2021/07/04 23:25:21;;;;;;;1.63;1.53;;;19.10;99.90;;;;;;10465062;28;20647;-80
2021/07/04 23:30:27;;;;;;;1.30;1.30;;;19.20;99.90;;;;;;10459563;28;20289;-80
2021/07/04 23:35:30;;;;;;;1.83;1.50;;;19.20;99.90;;;;;;10459334;28;20253;-80
2021/07/04 23:40:33;;;;;;;1.50;1.40;;;19.20;99.90;;;;;;10457306;28;20263;-80
2021/07/04 23:45:40;;;;;;;2.57;1.50;;;19.30;99.90;;;;;;10458321;28;20241;-80
2021/07/04 23:50:42;;;;;;;5.23;1.67;;;19.30;99.90;;;;;;10456563;28;20755;-80
2021/07/04 23:55:44;;;;;;;1.63;1.53;;;19.40;99.90;;;;;;10449388;28;20236;-80
